Time;durP1;ratioP1;P1;durP2;ratioP2;P2;SDS_P1;SDS_P2;PMS_P1;PMS_P2;Temp;Humidity;BMP_temperature;BMP_pressure;BME280_temperature;BME280_humidity;BME280_pressure;Samples;Min_cycle;Max_cycle;Signal;HPM_P1;HPM_P2
2020/12/23 00:01:04;;;;;;;1.37;0.67;;;;;;;12.92;96.75;98816.63;5013908;28;20199;-78
2020/12/23 00:03:38;;;;;;;1.00;0.90;;;;;;;12.88;96.55;98821.34;5003486;28;20203;-76
2020/12/23 00:06:06;;;;;;;0.93;0.83;;;;;;;12.88;96.85;98810.75;5014271;28;20207;-76
2020/12/23 00:08:33;;;;;;;0.70;0.70;;;;;;;12.89;96.50;98801.81;5014849;28;20281;-76
2020/12/23 00:11:01;;;;;;;0.70;0.70;;;;;;;12.88;96.70;98810.75;4996894;28;20215;-77
2020/12/23 00:13:29;;;;;;;0.70;0.60;;;;;;;12.93;96.56;98805.91;4990335;28;20268;-76
2020/12/23 00:15:56;;;;;;;1.60;0.60;;;;;;;12.93;96.29;98807.72;5011703;28;20268;-77
2020/12/23 00:18:23;;;;;;;0.77;0.77;;;;;;;12.90;96.60;98808.81;5030182;28;20282;-76
2020/12/23 00:20:50;;;;;;;0.97;0.90;;;;;;;12.83;96.76;98807.59;5014427;28;20671;-76
2020/12/23 00:23:17;;;;;;;1.50;0.90;;;;;;;12.85;96.86;98799.53;5012753;28;20242;-76
2020/12/23 00:25:44;;;;;;;0.70;0.70;;;;;;;12.89;96.71;98793.00;5014174;28;20253;-76
2020/12/23 00:28:12;;;;;;;1.67;0.70;;;;;;;12.90;96.30;98803.50;5012384;28;20247;-75
2020/12/23 00:30:41;;;;;;;0.70;0.70;;;;;;;13.02;95.80;98794.59;5013941;28;20683;-76
2020/12/23 00:33:24;;;;;;;1.00;0.73;;;;;;;13.02;95.85;98796.38;5013232;28;20277;-77
2020/12/23 00:35:51;;;;;;;1.20;1.10;;;;;;;12.97;95.92;98793.25;5014280;28;20207;-76
2020/12/23 00:38:18;;;;;;;0.87;0.70;;;;;;;13.02;95.63;98802.53;4985651;28;20242;-76
2020/12/23 00:40:45;;;;;;;0.73;0.73;;;;;;;12.91;95.79;98810.50;5006494;28;20273;-76
2020/12/23 00:43:13;;;;;;;0.90;0.70;;;;;;;13.02;95.72;98809.66;5012032;28;20215;-76
2020/12/23 00:45:41;;;;;;;2.20;0.70;;;;;;;12.96;96.01;98807.47;5012661;28;20203;-77
2020/12/23 00:48:08;;;;;;;0.70;0.70;;;;;;;13.00;96.08;98803.59;5003686;28;20195;-76
2020/12/23 00:50:35;;;;;;;1.00;0.90;;;;;;;12.99;96.33;98812.53;4994731;28;20219;-77
2020/12/23 00:53:03;;;;;;;0.70;0.70;;;;;;;13.14;94.84;98804.22;4995470;28;20216;-76
2020/12/23 00:55:30;;;;;;;0.70;0.60;;;;;;;13.21;94.27;98809.88;5012058;28;20199;-76
2020/12/23 00:57:57;;;;;;;0.90;0.90;;;;;;;13.19;94.62;98804.66;5013698;28;20655;-76
2020/12/23 01:00:25;;;;;;;1.10;1.00;;;;;;;13.19;94.53;98794.06;5013165;28;20201;-76
2020/12/23 01:02:52;;;;;;;1.20;0.73;;;;;;;13.16;94.35;98799.66;5013064;28;20273;-76
2020/12/23 01:05:19;;;;;;;0.57;0.57;;;;;;;13.28;93.02;98790.66;5027999;28;20195;-76
2020/12/23 01:07:46;;;;;;;2.50;0.80;;;;;;;13.35;92.76;98789.22;5012172;28;20245;-77
2020/12/23 01:10:13;;;;;;;0.73;0.73;;;;;;;13.43;92.22;98790.38;5012406;28;20318;-76
2020/12/23 01:12:40;;;;;;;0.60;0.60;;;;;;;13.42;92.69;98794.03;5000259;28;20612;-77
2020/12/23 01:15:07;;;;;;;1.73;0.80;;;;;;;13.33;92.58;98796.44;4976359;28;20202;-76
2020/12/23 01:17:36;;;;;;;1.33;0.90;;;;;;;13.35;92.73;98799.81;4993147;28;20215;-76
2020/12/23 01:20:04;;;;;;;0.90;0.80;;;;;;;13.48;91.41;98802.31;4995696;28;20268;-76
2020/12/23 01:22:31;;;;;;;0.90;0.70;;;;;;;13.47;91.39;98797.97;5013246;28;20195;-77
2020/12/23 01:24:58;;;;;;;0.60;0.60;;;;;;;13.61;90.79;98804.78;4996053;28;20686;-76
2020/12/23 01:27:25;;;;;;;0.80;0.60;;;;;;;13.62;90.68;98795.84;5012462;28;20203;-76
2020/12/23 01:29:52;;;;;;;1.03;0.80;;;;;;;13.59;91.19;98794.28;5012555;28;20227;-75
2020/12/23 01:32:19;;;;;;;2.97;0.63;;;;;;;13.57;90.82;98798.03;5013016;28;20199;-75
2020/12/23 01:34:47;;;;;;;0.90;0.73;;;;;;;13.63;90.57;98790.41;5012486;28;20683;-77
2020/12/23 01:37:14;;;;;;;0.97;0.80;;;;;;;13.61;90.62;98794.19;4997255;28;20204;-78
2020/12/23 01:39:41;;;;;;;0.80;0.70;;;;;;;13.57;90.96;98787.44;5010334;28;20656;-77
2020/12/23 01:42:08;;;;;;;1.43;0.67;;;;;;;13.66;90.27;98792.81;5011783;28;20195;-77
2020/12/23 01:44:37;;;;;;;0.63;0.60;;;;;;;13.61;90.45;98794.19;4997780;28;20674;-76
2020/12/23 01:47:07;;;;;;;0.77;0.70;;;;;;;13.62;90.76;98783.41;4999877;28;20191;-76
2020/12/23 01:49:35;;;;;;;0.57;0.57;;;;;;;13.56;90.91;98791.06;5006973;28;20200;-76
2020/12/23 01:52:03;;;;;;;0.53;0.53;;;;;;;13.67;90.46;98789.19;4992405;28;20191;-75
2020/12/23 01:54:30;;;;;;;1.17;0.60;;;;;;;13.67;90.18;98791.03;5006100;28;20281;-76
2020/12/23 01:56:58;;;;;;;0.90;0.60;;;;;;;13.64;90.51;98785.97;5011311;28;20195;-76
2020/12/23 01:59:25;;;;;;;0.90;0.60;;;;;;;13.55;90.95;98784.06;5013235;28;20271;-77
2020/12/23 02:02:09;;;;;;;0.50;0.50;;;;;;;13.62;90.31;98790.53;5011744;28;20195;-76
2020/12/23 02:04:37;;;;;;;0.60;0.60;;;;;;;13.63;90.08;98765.69;5010851;28;20304;-78
2020/12/23 02:07:05;;;;;;;1.07;0.60;;;;;;;13.67;90.11;98767.94;5008189;28;20589;-76
2020/12/23 02:09:33;;;;;;;0.60;0.60;;;;;;;13.68;89.71;98771.44;4994873;28;20202;-76
2020/12/23 02:12:01;;;;;;;0.73;0.67;;;;;;;13.68;90.17;98774.09;5011614;28;20325;-76
2020/12/23 02:14:28;;;;;;;0.50;0.50;;;;;;;13.73;89.45;98771.91;5012964;28;20203;-76
2020/12/23 02:16:55;;;;;;;0.50;0.50;;;;;;;13.74;89.32;98766.47;5010519;28;20294;-76
2020/12/23 02:19:22;;;;;;;1.13;0.70;;;;;;;13.81;89.37;98770.28;5010907;28;20266;-76
2020/12/23 02:21:49;;;;;;;0.53;0.53;;;;;;;13.76;89.33;98767.19;5009440;28;20195;-76
2020/12/23 02:24:18;;;;;;;0.70;0.70;;;;;;;13.69;89.45;98763.38;5011280;28;20310;-76
2020/12/23 02:26:45;;;;;;;0.60;0.60;;;;;;;13.83;89.21;98762.19;5012371;28;20278;-78
2020/12/23 02:29:12;;;;;;;0.60;0.60;;;;;;;13.78;89.03;98759.09;5005101;28;20210;-76
2020/12/23 02:31:39;;;;;;;0.70;0.70;;;;;;;13.76;89.45;98750.41;5009701;28;20241;-76
2020/12/23 02:34:08;;;;;;;0.53;0.53;;;;;;;13.78;89.29;98751.13;5027537;28;20206;-76
2020/12/23 02:36:35;;;;;;;0.73;0.40;;;;;;;13.85;88.76;98739.00;5010740;28;20219;-76
2020/12/23 02:39:03;;;;;;;0.50;0.50;;;;;;;13.85;88.75;98741.66;5012487;28;20667;-76
2020/12/23 02:41:32;;;;;;;1.33;0.60;;;;;;;13.83;89.34;98743.63;5010593;28;20191;-78
2020/12/23 02:43:59;;;;;;;0.80;0.70;;;;;;;13.83;89.55;98733.00;5012175;28;20219;-77
2020/12/23 02:46:26;;;;;;;0.50;0.50;;;;;;;13.90;88.65;98727.03;5001399;28;20211;-76
2020/12/23 02:48:53;;;;;;;0.70;0.57;;;;;;;13.86;89.02;98727.41;4997211;28;20203;-77
2020/12/23 02:51:20;;;;;;;0.63;0.57;;;;;;;13.87;88.62;98715.81;5011557;28;20274;-76
2020/12/23 02:53:47;;;;;;;0.50;0.50;;;;;;;13.88;88.29;98712.19;5010833;28;20206;-76
2020/12/23 02:56:14;;;;;;;0.40;0.40;;;;;;;13.89;88.62;98721.84;5014139;28;20664;-76
2020/12/23 02:58:43;;;;;;;1.00;0.60;;;;;;;13.92;88.40;98713.63;5009211;28;20192;-76
2020/12/23 03:01:10;;;;;;;0.63;0.60;;;;;;;13.94;88.52;98716.97;4994009;28;20295;-76
2020/12/23 03:03:37;;;;;;;0.60;0.60;;;;;;;13.99;87.95;98714.75;4993839;28;20226;-77
2020/12/23 03:06:04;;;;;;;0.40;0.40;;;;;;;13.93;88.39;98704.66;4988964;28;20861;-76
2020/12/23 03:08:32;;;;;;;0.77;0.60;;;;;;;13.90;88.67;98704.94;5011823;28;20262;-76
2020/12/23 03:11:00;;;;;;;1.23;0.60;;;;;;;13.89;88.42;98712.03;5011920;28;20202;-77
2020/12/23 03:13:27;;;;;;;2.13;0.60;;;;;;;13.89;88.50;98714.69;5012130;28;20205;-76
2020/12/23 03:15:55;;;;;;;0.60;0.50;;;;;;;13.89;88.29;98709.38;5010193;28;20730;-76
2020/12/23 03:18:22;;;;;;;1.13;0.50;;;;;;;13.92;88.12;98703.00;5010884;28;20204;-76
2020/12/23 03:20:49;;;;;;;1.13;0.50;;;;;;;14.00;87.50;98711.16;5011543;28;20199;-76
2020/12/23 03:23:16;;;;;;;1.90;0.60;;;;;;;14.03;87.63;98702.06;4997139;28;20279;-77
2020/12/23 03:25:43;;;;;;;0.40;0.40;;;;;;;13.94;87.39;98706.38;5000071;28;20318;-76
2020/12/23 03:28:10;;;;;;;0.40;0.40;;;;;;;14.02;87.65;98698.56;5011555;28;20203;-77
2020/12/23 03:30:37;;;;;;;0.50;0.50;;;;;;;13.99;86.51;98703.28;5010675;28;20199;-77
2020/12/23 03:33:05;;;;;;;1.63;0.50;;;;;;;14.01;86.78;98702.19;5009530;28;20266;-76
2020/12/23 03:35:32;;;;;;;0.70;0.50;;;;;;;14.00;86.91;98700.53;5003910;28;20214;-76
2020/12/23 03:38:01;;;;;;;0.97;0.60;;;;;;;14.01;86.62;98696.06;5010368;28;20601;-76
2020/12/23 03:40:28;;;;;;;0.43;0.43;;;;;;;14.00;86.72;98692.56;5012207;28;20655;-76
2020/12/23 03:42:55;;;;;;;0.93;0.60;;;;;;;14.06;86.73;98684.06;5011173;28;20214;-78
2020/12/23 03:45:22;;;;;;;1.43;0.70;;;;;;;14.04;86.79;98678.03;5011686;28;20184;-76
2020/12/23 03:47:49;;;;;;;0.83;0.53;;;;;;;14.00;86.88;98684.59;5011966;28;20196;-76
2020/12/23 03:50:17;;;;;;;1.67;0.60;;;;;;;13.95;86.74;98687.63;5010908;28;20211;-76
2020/12/23 03:52:44;;;;;;;1.47;0.70;;;;;;;14.03;86.90;98684.31;5011968;28;20204;-76
2020/12/23 03:55:11;;;;;;;0.50;0.50;;;;;;;14.03;86.61;98679.00;5011586;28;20202;-76
2020/12/23 03:57:38;;;;;;;0.53;0.50;;;;;;;14.00;86.35;98676.63;5010260;28;20201;-76
2020/12/23 04:00:07;;;;;;;0.63;0.60;;;;;;;13.95;86.71;98676.16;5010101;28;20672;-76
2020/12/23 04:02:38;;;;;;;0.50;0.50;;;;;;;13.97;86.39;98682.19;5011165;28;20192;-76
2020/12/23 04:05:06;;;;;;;1.07;0.60;;;;;;;14.04;86.47;98679.81;5010082;28;20222;-76
2020/12/23 04:07:35;;;;;;;0.50;0.50;;;;;;;14.00;86.14;98683.75;5013585;28;20231;-78
2020/12/23 04:10:03;;;;;;;0.40;0.40;;;;;;;14.03;86.21;98673.69;5014867;28;20192;-76
2020/12/23 04:12:30;;;;;;;0.80;0.57;;;;;;;13.95;86.01;98670.84;5014686;28;20229;-76
2020/12/23 04:14:57;;;;;;;1.40;0.63;;;;;;;14.02;86.12;98666.69;5013085;28;20203;-77
2020/12/23 04:17:24;;;;;;;0.60;0.60;;;;;;;13.97;85.88;98663.59;5013629;28;20619;-75
2020/12/23 04:19:51;;;;;;;0.43;0.40;;;;;;;14.02;85.58;98656.06;5014924;28;20589;-75
2020/12/23 04:22:18;;;;;;;2.33;0.80;;;;;;;13.98;85.90;98665.25;5014140;28;20678;-77
2020/12/23 04:24:46;;;;;;;3.23;0.70;;;;;;;14.02;85.83;98666.69;5014884;28;20216;-76
2020/12/23 04:27:14;;;;;;;0.50;0.50;;;;;;;13.96;86.12;98672.53;5010673;28;20203;-76
2020/12/23 04:29:41;;;;;;;0.53;0.53;;;;;;;14.05;85.64;98669.09;5012215;28;20213;-77
2020/12/23 04:32:12;;;;;;;0.60;0.60;;;;;;;14.01;85.75;98665.00;5014742;28;20187;-76
2020/12/23 04:34:39;;;;;;;0.83;0.60;;;;;;;14.00;85.44;98662.50;5001644;28;20601;-76
2020/12/23 04:37:07;;;;;;;0.90;0.60;;;;;;;14.05;85.87;98655.81;5014575;28;20211;-76
2020/12/23 04:39:34;;;;;;;0.53;0.53;;;;;;;14.11;86.04;98655.28;5013918;28;20250;-76
2020/12/23 04:42:01;;;;;;;0.53;0.53;;;;;;;14.00;86.48;98647.41;5010258;28;20656;-76
2020/12/23 04:44:29;;;;;;;0.80;0.70;;;;;;;13.98;86.46;98644.03;5010596;28;20218;-76
2020/12/23 04:46:57;;;;;;;0.60;0.50;;;;;;;14.01;86.62;98645.59;5014186;28;20253;-77
2020/12/23 04:49:25;;;;;;;1.03;0.70;;;;;;;14.00;86.79;98636.78;5013403;28;20283;-76
2020/12/23 04:51:54;;;;;;;0.83;0.50;;;;;;;13.91;87.27;98633.09;5014354;28;20203;-76
2020/12/23 04:54:22;;;;;;;2.00;0.70;;;;;;;13.94;87.57;98619.56;5029350;28;20206;-76
2020/12/23 04:56:49;;;;;;;1.70;0.60;;;;;;;13.84;88.08;98626.63;5013776;28;20204;-76
2020/12/23 04:59:17;;;;;;;0.40;0.40;;;;;;;13.82;88.14;98623.28;5014131;28;20208;-76
2020/12/23 05:01:44;;;;;;;0.97;0.40;;;;;;;13.90;88.07;98630.56;5013538;28;20252;-76
2020/12/23 05:04:11;;;;;;;1.23;0.67;;;;;;;13.76;88.58;98633.56;5013860;28;20230;-76
2020/12/23 05:06:39;;;;;;;1.17;0.53;;;;;;;13.84;88.33;98634.59;5013802;28;20195;-76
2020/12/23 05:09:07;;;;;;;0.67;0.60;;;;;;;13.83;88.14;98630.28;5012427;28;20235;-75
2020/12/23 05:11:35;;;;;;;0.70;0.40;;;;;;;13.80;88.30;98645.63;5013634;28;20223;-76
2020/12/23 05:14:06;;;;;;;0.43;0.43;;;;;;;13.82;88.26;98643.66;5014073;28;20204;-78
2020/12/23 05:16:35;;;;;;;0.60;0.60;;;;;;;13.70;88.90;98639.41;5012430;28;20204;-76
2020/12/23 05:19:03;;;;;;;1.10;0.57;;;;;;;13.80;88.72;98640.31;4995559;28;21009;-76
2020/12/23 05:21:30;;;;;;;0.40;0.40;;;;;;;13.78;88.78;98651.06;5002334;28;20257;-76
2020/12/23 05:23:58;;;;;;;0.77;0.53;;;;;;;13.63;89.57;98646.22;5013803;28;20228;-76
2020/12/23 05:26:26;;;;;;;1.10;0.60;;;;;;;13.70;89.01;98640.25;5029138;28;20207;-76
2020/12/23 05:28:53;;;;;;;0.90;0.70;;;;;;;13.68;89.00;98646.66;5004575;28;20204;-76
2020/12/23 05:31:21;;;;;;;0.67;0.53;;;;;;;13.62;88.98;98641.88;5003091;28;20203;-76
2020/12/23 05:33:50;;;;;;;0.70;0.70;;;;;;;13.66;89.08;98635.34;5012353;28;20199;-78
2020/12/23 05:36:37;;;;;;;0.57;0.57;;;;;;;13.68;88.09;98636.06;4995984;28;20195;-75
2020/12/23 05:39:05;;;;;;;0.77;0.70;;;;;;;13.70;87.58;98636.75;5010798;28;20721;-75
2020/12/23 05:41:33;;;;;;;0.50;0.50;;;;;;;13.68;87.61;98626.28;5009112;28;20235;-75
2020/12/23 05:44:01;;;;;;;0.60;0.60;;;;;;;13.76;87.82;98633.56;5010171;28;20221;-78
2020/12/23 05:46:28;;;;;;;2.20;0.70;;;;;;;13.66;88.15;98627.38;5006741;28;20199;-78
2020/12/23 05:48:58;;;;;;;0.57;0.57;;;;;;;13.73;88.03;98628.53;5005024;28;20573;-73
2020/12/23 05:51:25;;;;;;;0.50;0.50;;;;;;;13.70;87.95;98619.00;5011702;28;20214;-74
2020/12/23 05:53:52;;;;;;;1.50;0.70;;;;;;;13.68;88.29;98628.09;5011264;28;20314;-75
2020/12/23 05:56:19;;;;;;;0.70;0.57;;;;;;;13.74;87.98;98611.63;5026453;28;20206;-77
2020/12/23 05:58:47;;;;;;;0.70;0.50;;;;;;;13.71;88.09;98614.56;5012787;28;20223;-75
2020/12/23 06:01:22;;;;;;;0.40;0.40;;;;;;;13.61;88.33;98608.38;5000280;28;20195;-74
2020/12/23 06:03:55;;;;;;;0.67;0.50;;;;;;;13.66;88.14;98612.31;5002188;28;20227;-81
2020/12/23 06:06:25;;;;;;;0.90;0.70;;;;;;;13.70;87.96;98603.09;5010063;28;20222;-74
2020/12/23 06:08:54;;;;;;;1.27;0.67;;;;;;;13.59;87.80;98604.97;5008100;28;20341;-76
2020/12/23 06:11:38;;;;;;;0.70;0.60;;;;;;;13.57;87.89;98604.28;5022329;28;20298;-76
2020/12/23 06:14:18;;;;;;;0.70;0.70;;;;;;;13.63;87.55;98607.25;5010988;28;20191;-76
2020/12/23 06:16:48;;;;;;;0.50;0.50;;;;;;;13.73;87.44;98594.00;5009041;28;20593;-74
2020/12/23 06:19:24;;;;;;;0.67;0.67;;;;;;;13.65;87.36;98588.53;5008455;28;20203;-75
2020/12/23 06:21:54;;;;;;;1.80;0.57;;;;;;;13.63;87.13;98586.03;5025224;28;20289;-75
2020/12/23 06:24:22;;;;;;;1.10;0.53;;;;;;;13.64;86.99;98586.88;5003644;28;20619;-74
2020/12/23 06:26:51;;;;;;;0.70;0.70;;;;;;;13.62;87.46;98594.09;5008822;28;20195;-74
2020/12/23 06:29:20;;;;;;;1.53;0.77;;;;;;;13.65;87.52;98588.53;5008924;28;20241;-74
2020/12/23 06:31:50;;;;;;;1.83;0.60;;;;;;;13.71;87.36;98595.97;5005652;28;20572;-76
2020/12/23 06:34:18;;;;;;;0.50;0.50;;;;;;;13.67;87.36;98586.59;5003974;28;20204;-78
2020/12/23 06:36:46;;;;;;;1.43;0.63;;;;;;;13.58;87.26;98587.38;5006866;28;20565;-77
2020/12/23 06:39:38;;;;;;;0.67;0.67;;;;;;;13.58;87.07;98582.09;5022229;28;20283;-75
2020/12/23 06:42:26;;;;;;;2.00;0.63;;;;;;;13.59;86.66;98578.44;5013422;28;20202;-81
2020/12/23 06:44:56;;;;;;;1.00;0.70;;;;;;;13.60;86.50;98580.97;5008262;28;20223;-75
2020/12/23 06:47:23;;;;;;;0.70;0.70;;;;;;;13.54;87.02;98584.16;5036275;28;20644;-75
2020/12/23 06:49:52;;;;;;;1.03;0.60;;;;;;;13.60;87.03;98580.13;5007375;28;20219;-79
2020/12/23 06:52:46;;;;;;;0.50;0.50;;;;;;;13.53;87.44;98579.00;5011186;28;20210;-75
2020/12/23 06:55:15;;;;;;;0.57;0.57;;;;;;;13.59;87.78;98581.09;4981136;28;20293;-76
2020/12/23 06:57:55;;;;;;;0.70;0.70;;;;;;;13.53;87.37;98579.00;5010799;28;20273;-73
2020/12/23 07:00:41;;;;;;;0.60;0.60;;;;;;;13.54;87.47;98580.66;5007310;28;20648;-74
2020/12/23 07:03:10;;;;;;;0.77;0.77;;;;;;;13.52;88.04;98577.28;5006488;28;20240;-74
2020/12/23 07:05:42;;;;;;;0.60;0.60;;;;;;;13.49;88.37;98581.06;5007508;28;20262;-74
2020/12/23 07:08:12;;;;;;;1.07;0.80;;;;;;;13.45;88.37;98571.66;4993778;28;20238;-73
2020/12/23 07:10:41;;;;;;;0.70;0.70;;;;;;;13.51;88.31;98580.91;5004600;28;20192;-75
2020/12/23 07:13:11;;;;;;;1.63;0.70;;;;;;;13.40;88.07;98570.38;5018350;28;20195;-75
2020/12/23 07:15:39;;;;;;;2.50;0.77;;;;;;;13.43;88.41;98578.06;5004173;28;20201;-73
2020/12/23 07:18:08;;;;;;;0.60;0.50;;;;;;;13.54;88.03;98585.97;5009815;28;20222;-74
2020/12/23 07:20:40;;;;;;;0.90;0.60;;;;;;;13.45;88.29;98586.75;5006368;28;20274;-73
2020/12/23 07:23:09;;;;;;;0.70;0.60;;;;;;;13.39;88.83;98580.16;5005480;28;20618;-76
2020/12/23 07:25:40;;;;;;;1.90;0.90;;;;;;;13.50;88.30;98579.25;5019188;28;20219;-74
2020/12/23 07:28:10;;;;;;;2.50;0.67;;;;;;;13.49;88.01;98588.19;5006099;28;20226;-75
2020/12/23 07:30:39;;;;;;;2.53;0.80;;;;;;;13.41;88.43;98590.66;5007918;28;20211;-77
2020/12/23 07:33:09;;;;;;;0.83;0.67;;;;;;;13.52;88.19;98593.22;5021233;28;20264;-75
2020/12/23 07:35:37;;;;;;;3.30;0.90;;;;;;;13.41;87.45;98591.50;5004622;28;20210;-73
2020/12/23 07:38:06;;;;;;;3.20;0.80;;;;;;;13.47;87.53;98590.97;5011129;28;20233;-73
2020/12/23 07:40:34;;;;;;;2.63;0.70;;;;;;;13.47;87.45;98579.50;5012475;28;20218;-73
2020/12/23 07:43:02;;;;;;;1.33;0.73;;;;;;;13.45;87.50;98576.13;5014786;28;20668;-75
2020/12/23 07:45:32;;;;;;;1.23;0.90;;;;;;;13.46;87.05;98585.78;5009784;28;20294;-77
2020/12/23 07:48:01;;;;;;;1.53;0.80;;;;;;;13.44;86.55;98588.59;5008726;28;20205;-74
2020/12/23 07:50:30;;;;;;;1.73;0.97;;;;;;;13.58;86.71;98587.38;5013615;28;20191;-75
2020/12/23 07:52:57;;;;;;;1.77;0.90;;;;;;;13.54;85.87;98591.28;5012421;28;20293;-73
2020/12/23 07:55:25;;;;;;;1.27;0.80;;;;;;;13.51;86.21;98586.22;5010462;28;20203;-80
2020/12/23 07:57:53;;;;;;;1.57;0.70;;;;;;;13.56;85.71;98578.72;5006755;28;20286;-74
2020/12/23 08:00:21;;;;;;;4.87;0.90;;;;;;;13.61;85.33;98587.13;5016533;28;20295;-73
2020/12/23 08:02:54;;;;;;;1.10;0.80;;;;;;;13.63;85.24;98590.47;5013788;28;20208;-73
2020/12/23 08:05:21;;;;;;;1.30;0.93;;;;;;;13.69;84.75;98588.16;5013308;28;20216;-75
2020/12/23 08:07:48;;;;;;;2.57;0.93;;;;;;;13.67;84.27;98587.41;5012860;28;20246;-80
2020/12/23 08:10:18;;;;;;;1.30;0.80;;;;;;;13.76;83.70;98591.09;5013793;28;20198;-75
2020/12/23 08:12:52;;;;;;;2.63;1.00;;;;;;;13.79;84.47;98593.47;5006584;28;20215;-80
2020/12/23 08:15:19;;;;;;;1.10;1.00;;;;;;;13.77;84.17;98592.78;5017961;28;20225;-77
2020/12/23 08:17:47;;;;;;;1.73;0.80;;;;;;;13.80;84.37;98587.22;5004360;28;20278;-74
2020/12/23 08:20:16;;;;;;;1.40;1.10;;;;;;;13.80;83.89;98587.22;5014679;28;20203;-73
2020/12/23 08:22:45;;;;;;;1.73;1.20;;;;;;;13.80;84.27;98579.25;5020212;28;20195;-74
2020/12/23 08:25:14;;;;;;;2.97;0.93;;;;;;;13.85;83.33;98590.28;5007697;28;20565;-71
2020/12/23 08:27:43;;;;;;;2.20;0.80;;;;;;;13.86;83.66;98587.53;5014108;28;20246;-71
2020/12/23 08:30:11;;;;;;;1.20;0.97;;;;;;;13.90;83.36;98583.59;5013498;28;20195;-72
2020/12/23 08:32:45;;;;;;;2.30;1.00;;;;;;;13.85;82.50;98580.53;5013942;28;20213;-71
2020/12/23 08:35:18;;;;;;;1.67;0.80;;;;;;;13.90;82.13;98588.06;5014109;28;20195;-71
2020/12/23 08:37:45;;;;;;;1.30;0.83;;;;;;;13.97;82.72;98599.00;5012580;28;20269;-71
2020/12/23 08:40:16;;;;;;;0.70;0.60;;;;;;;13.97;82.44;98583.06;5011934;28;20230;-72
2020/12/23 08:42:55;;;;;;;1.37;0.93;;;;;;;14.04;81.79;98593.03;5012969;28;20270;-71
2020/12/23 08:45:24;;;;;;;1.10;1.00;;;;;;;14.04;82.07;98587.72;5011729;28;20218;-71
2020/12/23 08:47:52;;;;;;;1.80;0.97;;;;;;;14.10;81.36;98586.31;5013423;28;20221;-70
2020/12/23 08:50:21;;;;;;;0.87;0.87;;;;;;;14.14;81.81;98583.28;5010975;28;20237;-70
2020/12/23 08:52:49;;;;;;;1.10;1.00;;;;;;;14.18;81.94;98587.34;5013078;28;20211;-74
2020/12/23 08:55:18;;;;;;;0.70;0.70;;;;;;;14.17;81.52;98590.97;5004155;28;20199;-71
2020/12/23 08:57:46;;;;;;;0.97;0.87;;;;;;;14.12;81.24;98587.88;5012817;28;20206;-70
2020/12/23 09:00:17;;;;;;;1.07;0.70;;;;;;;14.25;81.47;98587.63;5012229;28;20198;-70
2020/12/23 09:02:46;;;;;;;1.90;0.80;;;;;;;14.20;80.57;98580.09;5004122;28;20200;-70
2020/12/23 09:05:24;;;;;;;2.10;0.80;;;;;;;14.18;81.48;98582.00;5012697;28;20265;-70
2020/12/23 09:08:04;;;;;;;0.53;0.50;;;;;;;14.29;81.20;98584.56;5011913;28;20246;-71
2020/12/23 09:10:33;;;;;;;2.40;0.90;;;;;;;14.30;81.07;98585.41;5012648;28;20201;-70
2020/12/23 09:13:05;;;;;;;1.83;1.00;;;;;;;14.25;81.20;98580.50;5012590;28;20199;-70
2020/12/23 09:15:32;;;;;;;2.00;0.90;;;;;;;14.37;81.01;98584.75;5012336;28;20556;-71
2020/12/23 09:18:09;;;;;;;1.27;1.07;;;;;;;14.27;81.32;98586.53;5016392;28;20195;-71
2020/12/23 09:20:39;;;;;;;2.50;2.30;;;;;;;14.31;81.26;98582.63;5010455;28;20676;-71
2020/12/23 09:23:07;;;;;;;1.30;1.20;;;;;;;14.32;81.24;98579.00;5011836;28;20246;-71
2020/12/23 09:25:36;;;;;;;1.77;1.30;;;;;;;14.37;80.75;98582.09;5009724;28;20222;-71
2020/12/23 09:28:08;;;;;;;1.40;1.30;;;;;;;14.38;81.03;98578.47;5012968;28;20257;-71
2020/12/23 09:30:37;;;;;;;1.30;1.10;;;;;;;14.32;80.98;98573.69;5010489;28;20250;-73
2020/12/23 09:33:07;;;;;;;1.23;0.90;;;;;;;14.43;81.10;98568.25;5009864;28;20286;-71
2020/12/23 09:35:35;;;;;;;1.47;1.10;;;;;;;14.29;80.22;98565.97;5010097;28;20210;-70
2020/12/23 09:38:12;;;;;;;1.93;1.00;;;;;;;14.33;80.45;98571.88;5012208;28;20199;-71
2020/12/23 09:40:41;;;;;;;2.97;0.93;;;;;;;14.41;80.69;98578.19;5011066;28;20202;-74
2020/12/23 09:43:11;;;;;;;0.87;0.80;;;;;;;14.39;80.76;98569.53;5010877;28;20195;-71
2020/12/23 09:45:38;;;;;;;0.83;0.80;;;;;;;14.41;80.59;98577.34;5005469;28;20310;-72
2020/12/23 09:48:05;;;;;;;0.80;0.80;;;;;;;14.50;80.34;98576.53;5001480;28;20222;-72
2020/12/23 09:50:33;;;;;;;2.10;0.80;;;;;;;14.58;80.46;98567.84;5005018;28;20277;-71
2020/12/23 09:53:01;;;;;;;2.23;0.80;;;;;;;14.50;79.98;98566.72;5024312;28;20645;-71
2020/12/23 09:55:29;;;;;;;2.00;0.80;;;;;;;14.48;80.35;98563.34;5003462;28;20651;-71
2020/12/23 09:57:58;;;;;;;1.73;0.80;;;;;;;14.61;80.12;98562.25;5003514;28;20203;-70
2020/12/23 10:00:27;;;;;;;0.73;0.70;;;;;;;14.66;79.53;98555.53;4999472;28;20249;-73
2020/12/23 10:02:54;;;;;;;2.20;0.80;;;;;;;14.61;79.38;98556.94;5000108;28;20192;-73
2020/12/23 10:05:21;;;;;;;1.57;0.80;;;;;;;14.55;79.84;98549.50;5007283;28;20686;-71
2020/12/23 10:07:49;;;;;;;2.37;1.00;;;;;;;14.61;80.10;98540.97;5001498;28;20239;-70
2020/12/23 10:10:16;;;;;;;3.50;1.10;;;;;;;14.49;80.23;98549.09;5007001;28;20215;-71
2020/12/23 10:12:44;;;;;;;1.03;0.97;;;;;;;14.50;80.43;98541.97;5007854;28;20211;-72
2020/12/23 10:15:11;;;;;;;1.97;0.90;;;;;;;14.56;80.41;98544.06;5007414;28;20290;-72
2020/12/23 10:17:39;;;;;;;1.87;1.10;;;;;;;14.45;81.29;98536.22;5009466;28;20263;-70
2020/12/23 10:20:07;;;;;;;1.00;0.90;;;;;;;14.51;81.97;98536.50;5015209;28;20306;-71
2020/12/23 10:22:35;;;;;;;3.90;1.90;;;;;;;14.51;82.70;98525.06;5006572;28;20556;-70
2020/12/23 10:25:04;;;;;;;1.43;1.00;;;;;;;14.50;83.11;98524.22;5013830;28;20322;-70
2020/12/23 10:27:31;;;;;;;1.53;1.00;;;;;;;14.40;83.45;98525.16;5013768;28;20191;-70
2020/12/23 10:29:59;;;;;;;1.20;1.10;;;;;;;14.46;83.74;98522.78;5015460;28;20571;-72
2020/12/23 10:32:29;;;;;;;2.63;0.97;;;;;;;14.45;83.66;98521.13;4999594;28;20195;-72
2020/12/23 10:34:57;;;;;;;1.80;1.20;;;;;;;14.44;84.11;98510.63;5005712;28;20207;-73
2020/12/23 10:37:25;;;;;;;1.20;1.10;;;;;;;14.57;83.83;98505.03;5009058;28;20187;-73
2020/12/23 10:39:56;;;;;;;1.33;1.23;;;;;;;14.70;83.42;98508.25;5026881;28;20218;-73
2020/12/23 10:42:27;;;;;;;1.10;0.90;;;;;;;14.62;83.76;98500.13;5008162;28;20207;-71
2020/12/23 10:44:54;;;;;;;2.40;1.50;;;;;;;14.34;85.86;98492.00;5008962;28;20211;-72
2020/12/23 10:47:31;;;;;;;1.17;1.07;;;;;;;14.51;84.16;98486.00;5006872;28;20206;-77
2020/12/23 10:49:58;;;;;;;1.20;1.10;;;;;;;14.58;83.83;98482.78;5007172;28;20207;-73
2020/12/23 10:52:27;;;;;;;1.30;1.20;;;;;;;14.67;83.93;98485.44;5004698;28;20289;-74
2020/12/23 10:54:54;;;;;;;1.10;1.00;;;;;;;14.67;83.84;98469.50;5005059;28;20273;-74
2020/12/23 10:57:21;;;;;;;1.60;1.30;;;;;;;14.59;84.22;98468.50;5004584;28;20192;-79
2020/12/23 10:59:48;;;;;;;1.23;1.10;;;;;;;14.62;84.09;98462.91;5007646;28;20717;-74
2020/12/23 11:02:16;;;;;;;1.40;1.27;;;;;;;14.59;83.08;98460.53;5012872;28;20198;-74
2020/12/23 11:04:45;;;;;;;1.10;1.00;;;;;;;14.62;83.37;98462.91;5013826;28;20229;-75
2020/12/23 11:07:13;;;;;;;2.40;1.30;;;;;;;14.49;82.81;98464.03;5033794;28;20217;-77
2020/12/23 11:09:40;;;;;;;2.13;1.30;;;;;;;14.54;83.95;98454.81;5007869;28;20219;-76
2020/12/23 11:12:07;;;;;;;1.27;1.10;;;;;;;14.57;82.29;98455.34;5006685;28;20679;-76
2020/12/23 11:14:34;;;;;;;1.20;1.10;;;;;;;14.50;81.48;98443.63;5008226;28;20199;-73
2020/12/23 11:17:01;;;;;;;1.47;0.90;;;;;;;14.58;82.37;98445.56;5023717;28;20600;-75
2020/12/23 11:19:28;;;;;;;2.97;1.13;;;;;;;14.47;82.47;98433.25;5022503;28;20207;-75
2020/12/23 11:21:56;;;;;;;3.03;1.10;;;;;;;14.59;82.97;98441.94;5002007;28;20241;-74
2020/12/23 11:24:23;;;;;;;1.20;1.03;;;;;;;14.60;83.32;98440.94;5009877;28;20281;-74
2020/12/23 11:26:50;;;;;;;2.00;1.67;;;;;;;14.66;83.72;98443.03;5007607;28;20206;-76
2020/12/23 11:29:17;;;;;;;1.87;1.67;;;;;;;14.61;83.69;98440.81;5006681;28;20210;-73
2020/12/23 11:31:44;;;;;;;2.77;2.10;;;;;;;14.60;84.21;98432.97;5004652;28;20199;-74
2020/12/23 11:34:11;;;;;;;1.93;1.73;;;;;;;14.61;83.95;98431.97;5013238;28;20360;-85
2020/12/23 11:36:58;;;;;;;1.80;1.50;;;;;;;14.55;83.80;98424.56;5012988;28;20222;-86
2020/12/23 11:39:25;;;;;;;2.40;1.30;;;;;;;14.49;84.48;98420.66;5012295;28;20706;-84
2020/12/23 11:41:54;;;;;;;1.90;1.20;;;;;;;14.50;84.43;98425.00;5010585;28;20203;-84